Time;durP1;ratioP1;P1;durP2;ratioP2;P2;SDS_P1;SDS_P2;PMS_P1;PMS_P2;Temp;Humidity;BMP_temperature;BMP_pressure;BME280_temperature;BME280_humidity;BME280_pressure;Samples;Min_cycle;Max_cycle;Signal;HPM_P1;HPM_P2
2021/08/25 00:01:15;;;;;;;7.55;3.70;;;;;;;;;;5073663;28;20473;-73
2021/08/25 00:03:42;;;;;;;4.05;3.55;;;;;;;;;;5074603;28;20025;-74
2021/08/25 00:06:08;;;;;;;4.47;3.30;;;;;;;;;;5074394;28;20452;-73
2021/08/25 00:08:34;;;;;;;6.50;4.63;;;;;;;;;;5074435;28;20075;-73
2021/08/25 00:11:00;;;;;;;5.75;4.22;;;;;;;;;;5073674;28;20103;-73
2021/08/25 00:13:26;;;;;;;6.53;3.38;;;;;;;;;;5073572;28;20028;-73
2021/08/25 00:15:52;;;;;;;3.80;3.40;;;;;;;;;;5073388;28;20493;-73
2021/08/25 00:18:18;;;;;;;5.97;3.50;;;;;;;;;;5074009;28;20478;-73
2021/08/25 00:20:44;;;;;;;5.95;3.58;;;;;;;;;;5073983;28;20091;-72
2021/08/25 00:23:10;;;;;;;5.75;3.90;;;;;;;;;;5073842;28;20135;-73
2021/08/25 00:25:36;;;;;;;4.05;3.35;;;;;;;;;;5073772;28;20052;-73
2021/08/25 00:28:02;;;;;;;3.97;3.10;;;;;;;;;;5073482;28;20025;-73
2021/08/25 00:30:28;;;;;;;4.13;3.33;;;;;;;;;;5073394;28;20032;-73
2021/08/25 00:32:54;;;;;;;3.75;3.33;;;;;;;;;;5073916;28;20029;-72
2021/08/25 00:35:20;;;;;;;7.18;3.80;;;;;;;;;;5073230;28;20385;-73
2021/08/25 00:37:46;;;;;;;3.60;2.88;;;;;;;;;;5073813;28;20051;-73
2021/08/25 00:40:13;;;;;;;8.52;3.70;;;;;;;;;;5073459;28;20039;-73
2021/08/25 00:42:39;;;;;;;6.88;3.38;;;;;;;;;;5073441;28;20028;-73
2021/08/25 00:45:06;;;;;;;5.85;3.40;;;;;;;;;;5073392;28;20466;-73
2021/08/25 00:47:33;;;;;;;4.55;3.58;;;;;;;;;;5073483;28;20028;-73
2021/08/25 00:49:59;;;;;;;4.43;3.58;;;;;;;;;;5075646;28;20374;-72
2021/08/25 00:52:25;;;;;;;3.72;3.20;;;;;;;;;;5077248;28;20377;-73
2021/08/25 00:54:52;;;;;;;6.13;3.85;;;;;;;;;;5077296;28;20477;-73
2021/08/25 00:57:18;;;;;;;7.35;3.70;;;;;;;;;;5076688;28;20405;-74
2021/08/25 00:59:44;;;;;;;4.82;3.10;;;;;;;;;;5077130;28;20046;-73
2021/08/25 01:02:31;;;;;;;4.60;3.63;;;;;;;;;;5077186;28;20095;-73
2021/08/25 01:04:58;;;;;;;4.93;3.53;;;;;;;;;;5077202;28;20028;-73
2021/08/25 01:07:24;;;;;;;7.60;3.10;;;;;;;;;;5077074;28;20462;-73
2021/08/25 01:09:51;;;;;;;4.25;3.40;;;;;;;;;;5076761;28;20484;-73
2021/08/25 01:12:18;;;;;;;3.97;3.40;;;;;;;;;;5076537;28;20458;-72
2021/08/25 01:14:44;;;;;;;7.28;3.05;;;;;;;;;;5077198;28;20032;-73
2021/08/25 01:17:11;;;;;;;6.53;3.33;;;;;;;;;;5077022;28;20025;-73
2021/08/25 01:19:42;;;;;;;5.05;3.28;;;;;;;;;;5076648;28;20461;-73
2021/08/25 01:22:08;;;;;;;4.00;2.75;;;;;;;;;;5076987;28;20048;-73
2021/08/25 01:24:34;;;;;;;4.93;3.30;;;;;;;;;;5076734;28;20036;-73
2021/08/25 01:27:00;;;;;;;3.55;3.00;;;;;;;;;;5076926;28;20534;-73
2021/08/25 01:29:27;;;;;;;4.53;2.95;;;;;;;;;;5076424;28;20020;-73
2021/08/25 01:31:53;;;;;;;3.60;3.20;;;;;;;;;;5076653;28;20032;-73
2021/08/25 01:34:19;;;;;;;7.20;3.42;;;;;;;;;;5076569;28;20027;-73
2021/08/25 01:36:45;;;;;;;5.25;3.65;;;;;;;;;;5076698;28;20020;-73
2021/08/25 01:39:11;;;;;;;8.88;3.63;;;;;;;;;;5076397;28;20155;-72
2021/08/25 01:41:37;;;;;;;7.05;3.42;;;;;;;;;;5076030;28;20040;-73
2021/08/25 01:44:04;;;;;;;5.13;3.33;;;;;;;;;;5076585;28;20493;-73
2021/08/25 01:46:32;;;;;;;4.43;3.28;;;;;;;;;;5076211;28;20032;-73
2021/08/25 01:48:59;;;;;;;6.88;3.05;;;;;;;;;;5076300;28;20035;-73
2021/08/25 01:51:25;;;;;;;3.45;2.63;;;;;;;;;;5075853;28;20021;-73
2021/08/25 01:53:51;;;;;;;3.30;2.85;;;;;;;;;;5076213;28;20024;-73
2021/08/25 01:56:17;;;;;;;3.55;2.88;;;;;;;;;;5076058;28;20050;-72
2021/08/25 01:58:43;;;;;;;2.65;2.45;;;;;;;;;;5076430;28;20032;-73
2021/08/25 02:01:10;;;;;;;4.53;3.15;;;;;;;;;;5075713;28;20040;-72
2021/08/25 02:03:36;;;;;;;3.33;2.47;;;;;;;;;;5075616;28;20462;-73
2021/08/25 02:06:02;;;;;;;5.97;3.10;;;;;;;;;;5076009;28;20488;-73
2021/08/25 02:08:28;;;;;;;6.40;3.25;;;;;;;;;;5076041;28;20385;-73
2021/08/25 02:10:54;;;;;;;5.38;3.53;;;;;;;;;;5075868;28;20028;-73
2021/08/25 02:13:20;;;;;;;4.75;2.72;;;;;;;;;;5075655;28;20524;-74
2021/08/25 02:15:46;;;;;;;9.45;3.67;;;;;;;;;;5075577;28;20386;-73
2021/08/25 02:18:12;;;;;;;3.15;2.70;;;;;;;;;;5075832;28;20031;-73
2021/08/25 02:20:38;;;;;;;4.13;2.90;;;;;;;;;;5075772;28;20037;-73
2021/08/25 02:23:04;;;;;;;7.00;2.63;;;;;;;;;;5075551;28;20544;-73
2021/08/25 02:25:30;;;;;;;2.97;2.65;;;;;;;;;;5075277;28;20025;-73
2021/08/25 02:27:56;;;;;;;4.63;2.78;;;;;;;;;;5075629;28;20032;-73
2021/08/25 02:30:23;;;;;;;8.85;2.90;;;;;;;;;;5075568;28;20060;-73
2021/08/25 02:32:49;;;;;;;5.28;3.00;;;;;;;;;;5075731;28;20032;-72
2021/08/25 02:35:15;;;;;;;4.60;3.00;;;;;;;;;;5075109;28;20044;-73
2021/08/25 02:37:41;;;;;;;5.00;3.10;;;;;;;;;;5075190;28;20027;-73
2021/08/25 02:40:07;;;;;;;3.17;2.88;;;;;;;;;;5074863;28;20028;-73
2021/08/25 02:42:34;;;;;;;3.67;2.70;;;;;;;;;;5075116;28;20470;-72
2021/08/25 02:45:00;;;;;;;4.55;2.80;;;;;;;;;;5075440;28;20473;-73
2021/08/25 02:47:26;;;;;;;10.55;3.63;;;;;;;;;;5074891;28;20381;-72
2021/08/25 02:49:52;;;;;;;5.85;3.20;;;;;;;;;;5074720;28;20025;-73
2021/08/25 02:52:18;;;;;;;6.93;3.10;;;;;;;;;;5074914;28;20043;-72
2021/08/25 02:54:44;;;;;;;3.88;3.15;;;;;;;;;;5074705;28;20032;-73
2021/08/25 02:57:10;;;;;;;5.13;3.05;;;;;;;;;;5074499;28;20508;-73
2021/08/25 02:59:36;;;;;;;3.10;2.75;;;;;;;;;;5074612;28;20021;-73
2021/08/25 03:02:02;;;;;;;3.63;2.97;;;;;;;;;;5074584;28;20040;-73
2021/08/25 03:04:28;;;;;;;5.68;3.17;;;;;;;;;;5074773;28;20441;-73
2021/08/25 03:06:54;;;;;;;4.35;2.88;;;;;;;;;;5074902;28;20047;-73
2021/08/25 03:09:20;;;;;;;4.40;3.00;;;;;;;;;;5074318;28;20024;-73
2021/08/25 03:11:48;;;;;;;7.22;2.70;;;;;;;;;;5074038;28;20032;-72
2021/08/25 03:14:14;;;;;;;7.18;2.97;;;;;;;;;;5074757;28;20036;-73
2021/08/25 03:16:40;;;;;;;3.42;2.65;;;;;;;;;;5074458;28;20546;-73
2021/08/25 03:19:06;;;;;;;6.80;3.00;;;;;;;;;;5074524;28;20363;-72
2021/08/25 03:21:32;;;;;;;3.92;2.78;;;;;;;;;;5074286;28;20033;-73
2021/08/25 03:23:58;;;;;;;5.53;2.85;;;;;;;;;;5074369;28;20402;-73
2021/08/25 03:26:24;;;;;;;5.05;3.10;;;;;;;;;;5075095;28;20024;-73
2021/08/25 03:28:50;;;;;;;6.88;2.97;;;;;;;;;;5074542;28;20052;-73
2021/08/25 03:31:16;;;;;;;5.88;2.50;;;;;;;;;;5074092;28;20036;-73
2021/08/25 03:33:42;;;;;;;3.88;3.00;;;;;;;;;;5074361;28;20031;-73
2021/08/25 03:36:08;;;;;;;3.97;3.25;;;;;;;;;;5074462;28;20032;-73
2021/08/25 03:38:34;;;;;;;5.63;3.65;;;;;;;;;;5073918;28;20078;-73
2021/08/25 03:41:01;;;;;;;7.45;2.85;;;;;;;;;;5074172;28;20090;-74
2021/08/25 03:43:27;;;;;;;3.60;3.20;;;;;;;;;;5074342;28;20025;-75
2021/08/25 03:45:53;;;;;;;5.85;3.63;;;;;;;;;;5074373;28;20477;-74
2021/08/25 03:48:19;;;;;;;6.53;3.83;;;;;;;;;;5074318;28;20508;-74
2021/08/25 03:50:45;;;;;;;3.25;2.92;;;;;;;;;;5074363;28;20052;-74
2021/08/25 03:53:11;;;;;;;6.35;3.10;;;;;;;;;;5073996;28;20035;-74
2021/08/25 03:55:37;;;;;;;5.95;2.97;;;;;;;;;;5073631;28;20619;-74
2021/08/25 03:58:03;;;;;;;3.22;2.90;;;;;;;;;;5074365;28;20410;-73
2021/08/25 04:00:29;;;;;;;3.45;3.15;;;;;;;;;;5074027;28;20119;-73
2021/08/25 04:02:55;;;;;;;4.28;2.63;;;;;;;;;;5074149;28;20543;-73
2021/08/25 04:05:21;;;;;;;3.15;2.85;;;;;;;;;;5073925;28;20032;-74
2021/08/25 04:07:47;;;;;;;4.20;3.03;;;;;;;;;;5073755;28;20027;-74
2021/08/25 04:10:13;;;;;;;3.58;3.03;;;;;;;;;;5074100;28;20029;-74
2021/08/25 04:12:40;;;;;;;4.75;2.92;;;;;;;;;;5074219;28;20024;-73
2021/08/25 04:15:06;;;;;;;3.90;3.20;;;;;;;;;;5074179;28;20130;-74
2021/08/25 04:17:32;;;;;;;3.60;2.75;;;;;;;;;;5073521;28;20505;-74
2021/08/25 04:19:58;;;;;;;4.72;2.55;;;;;;;;;;5073828;28;20051;-74
2021/08/25 04:22:24;;;;;;;4.97;2.97;;;;;;;;;;5073552;28;20020;-73
2021/08/25 04:24:50;;;;;;;3.10;2.80;;;;;;;;;;5077414;28;20588;-75
2021/08/25 04:27:17;;;;;;;4.45;3.10;;;;;;;;;;5077397;28;20351;-74
2021/08/25 04:29:43;;;;;;;3.72;2.97;;;;;;;;;;5077975;28;20127;-74
2021/08/25 04:32:09;;;;;;;4.32;3.05;;;;;;;;;;5077643;28;20469;-73
2021/08/25 04:34:36;;;;;;;3.25;2.70;;;;;;;;;;5077884;28;20032;-74
2021/08/25 04:37:02;;;;;;;3.83;3.42;;;;;;;;;;5077551;28;20139;-74
2021/08/25 04:39:28;;;;;;;4.78;3.50;;;;;;;;;;5077672;28;20386;-74
2021/08/25 04:41:54;;;;;;;8.48;3.78;;;;;;;;;;5077374;28;20120;-74
2021/08/25 04:44:20;;;;;;;9.65;3.80;;;;;;;;;;5077912;28;20481;-74
2021/08/25 04:46:47;;;;;;;12.82;3.65;;;;;;;;;;5077308;28;20529;-74
2021/08/25 04:49:13;;;;;;;4.47;3.13;;;;;;;;;;5077684;28;20044;-74
2021/08/25 04:51:39;;;;;;;6.05;3.22;;;;;;;;;;5077111;28;20025;-74
2021/08/25 04:54:05;;;;;;;4.72;3.25;;;;;;;;;;5077550;28;20359;-74
2021/08/25 04:56:31;;;;;;;6.70;3.70;;;;;;;;;;5077275;28;20056;-74
2021/08/25 04:58:57;;;;;;;12.02;3.67;;;;;;;;;;5077596;28;20033;-73
2021/08/25 05:01:23;;;;;;;5.28;3.35;;;;;;;;;;5076589;28;20115;-74
2021/08/25 05:03:49;;;;;;;4.47;3.53;;;;;;;;;;5077345;28;20389;-74
2021/08/25 05:06:17;;;;;;;3.20;2.50;;;;;;;;;;5071451;28;20116;-74
2021/08/25 05:08:43;;;;;;;4.38;3.70;;;;;;;;;;5085507;28;20024;-73
2021/08/25 05:11:09;;;;;;;6.47;3.13;;;;;;;;;;5096846;28;20074;-74
2021/08/25 05:13:37;;;;;;;4.18;3.58;;;;;;;;;;5097185;28;20024;-73
2021/08/25 05:16:03;;;;;;;4.93;3.50;;;;;;;;;;5094202;28;20024;-72
2021/08/25 05:18:29;;;;;;;3.90;3.50;;;;;;;;;;5077167;28;20111;-72
2021/08/25 05:20:55;;;;;;;4.80;3.30;;;;;;;;;;5076677;28;20390;-75
2021/08/25 05:23:21;;;;;;;6.68;3.47;;;;;;;;;;5077219;28;20056;-72
2021/08/25 05:25:47;;;;;;;11.10;4.80;;;;;;;;;;5076695;28;20025;-73
2021/08/25 05:28:14;;;;;;;6.32;3.28;;;;;;;;;;5082601;28;20055;-71
2021/08/25 05:30:40;;;;;;;16.38;4.97;;;;;;;;;;5096947;28;20028;-72
2021/08/25 05:33:07;;;;;;;6.63;4.85;;;;;;;;;;5096792;28;20449;-74
2021/08/25 05:35:33;;;;;;;4.38;3.97;;;;;;;;;;5096052;28;20024;-73
2021/08/25 05:37:59;;;;;;;5.38;3.58;;;;;;;;;;5077370;28;20470;-71
2021/08/25 05:40:25;;;;;;;4.88;4.03;;;;;;;;;;5076641;28;20071;-74
2021/08/25 05:42:51;;;;;;;7.45;3.80;;;;;;;;;;5076116;28;20387;-72
2021/08/25 05:45:17;;;;;;;6.45;3.63;;;;;;;;;;5076468;28;20486;-74
2021/08/25 05:47:43;;;;;;;5.00;3.30;;;;;;;;;;5075213;28;20024;-72
2021/08/25 05:50:10;;;;;;;12.98;3.58;;;;;;;;;;5076548;28;20107;-74
2021/08/25 05:52:36;;;;;;;8.35;3.83;;;;;;;;;;5076509;28;20021;-73
2021/08/25 05:55:02;;;;;;;4.97;3.22;;;;;;;;;;5076638;28;20462;-74
2021/08/25 05:57:28;;;;;;;7.95;4.07;;;;;;;;;;5095045;28;20130;-74
2021/08/25 05:59:55;;;;;;;6.25;3.80;;;;;;;;;;5096563;28;20024;-74
2021/08/25 06:02:21;;;;;;;5.68;4.05;;;;;;;;;;5096367;28;20473;-74
2021/08/25 06:04:47;;;;;;;19.35;4.50;;;;;;;;;;5096207;28;20060;-75
2021/08/25 06:07:13;;;;;;;12.80;4.35;;;;;;;;;;5096080;28;20077;-75
2021/08/25 06:09:39;;;;;;;3.78;3.10;;;;;;;;;;5077094;28;20031;-75
2021/08/25 06:12:06;;;;;;;5.60;3.88;;;;;;;;;;5075227;28;20024;-75
2021/08/25 06:14:32;;;;;;;65.65;9.93;;;;;;;;;;5074252;28;20078;-75
2021/08/25 06:16:58;;;;;;;5.95;3.78;;;;;;;;;;5075199;28;20044;-74
2021/08/25 06:19:24;;;;;;;6.75;4.07;;;;;;;;;;5075514;28;20023;-74
2021/08/25 06:21:50;;;;;;;8.27;3.42;;;;;;;;;;5076191;28;20071;-74
2021/08/25 06:24:17;;;;;;;12.00;4.03;;;;;;;;;;5075836;28;20028;-74
2021/08/25 06:26:43;;;;;;;8.30;3.97;;;;;;;;;;5075416;28;20059;-73
2021/08/25 06:29:09;;;;;;;6.13;4.35;;;;;;;;;;5075325;28;20444;-74
2021/08/25 06:31:35;;;;;;;13.35;4.05;;;;;;;;;;5075364;28;20036;-74
2021/08/25 06:34:01;;;;;;;6.00;4.30;;;;;;;;;;5075474;28;20055;-74
2021/08/25 06:36:27;;;;;;;5.40;3.97;;;;;;;;;;5075387;28;20029;-74
2021/08/25 06:38:53;;;;;;;14.32;3.95;;;;;;;;;;5075628;28;20028;-73
2021/08/25 06:41:19;;;;;;;4.10;3.25;;;;;;;;;;5074865;28;20039;-74
2021/08/25 06:43:45;;;;;;;7.38;4.40;;;;;;;;;;5075657;28;20036;-73
2021/08/25 06:46:11;;;;;;;6.10;4.57;;;;;;;;;;5075019;28;20020;-76
2021/08/25 06:48:37;;;;;;;16.48;5.40;;;;;;;;;;5074585;28;20470;-78
2021/08/25 06:51:04;;;;;;;12.80;5.85;;;;;;;;;;5075202;28;20493;-77
2021/08/25 06:53:31;;;;;;;20.17;5.70;;;;;;;;;;5074918;28;20032;-78
2021/08/25 06:55:57;;;;;;;5.97;4.80;;;;;;;;;;5074681;28;20051;-77
2021/08/25 06:58:27;;;;;;;11.65;5.97;;;;;;;;;;5074734;28;20470;-77
2021/08/25 07:00:53;;;;;;;12.60;6.13;;;;;;;;;;5074742;28;20060;-77
2021/08/25 07:03:19;;;;;;;13.30;6.43;;;;;;;;;;5074495;28;20075;-77
2021/08/25 07:05:45;;;;;;;12.18;5.60;;;;;;;;;;5074878;28;20487;-78
2021/08/25 07:08:11;;;;;;;6.68;4.60;;;;;;;;;;5074692;28;20428;-78
2021/08/25 07:10:37;;;;;;;7.63;5.05;;;;;;;;;;5074684;28;20032;-75
2021/08/25 07:13:03;;;;;;;23.13;5.38;;;;;;;;;;5074896;28;20029;-75
2021/08/25 07:15:29;;;;;;;13.40;5.90;;;;;;;;;;5074482;28;20098;-75
2021/08/25 07:17:55;;;;;;;14.73;6.28;;;;;;;;;;5074562;28;20027;-75
2021/08/25 07:20:21;;;;;;;10.70;5.18;;;;;;;;;;5073769;28;20796;-75
2021/08/25 07:22:47;;;;;;;16.80;5.68;;;;;;;;;;5074291;28;20032;-75
2021/08/25 07:25:13;;;;;;;21.27;6.80;;;;;;;;;;5074083;28;20416;-77
2021/08/25 07:27:40;;;;;;;21.35;6.35;;;;;;;;;;5074824;28;20028;-75
2021/08/25 07:30:07;;;;;;;19.10;7.07;;;;;;;;;;5074523;28;20031;-75
2021/08/25 07:32:33;;;;;;;22.80;5.78;;;;;;;;;;5074402;28;20024;-76
2021/08/25 07:34:59;;;;;;;40.88;7.25;;;;;;;;;;5074433;28;20071;-75
2021/08/25 07:37:25;;;;;;;15.20;7.95;;;;;;;;;;5074311;28;20029;-75
2021/08/25 07:39:51;;;;;;;45.10;8.50;;;;;;;;;;5074293;28;20070;-75
2021/08/25 07:42:17;;;;;;;69.82;10.30;;;;;;;;;;5074002;28;20047;-75
2021/08/25 07:44:43;;;;;;;52.78;7.93;;;;;;;;;;5074269;28;20462;-75
2021/08/25 07:47:09;;;;;;;43.35;8.20;;;;;;;;;;5073841;28;20047;-73
2021/08/25 07:49:35;;;;;;;34.40;7.50;;;;;;;;;;5074036;28;20032;-73
2021/08/25 07:52:03;;;;;;;36.10;7.53;;;;;;;;;;5073906;28;20024;-73
2021/08/25 07:54:29;;;;;;;26.75;8.25;;;;;;;;;;5074145;28;20021;-74
2021/08/25 07:56:55;;;;;;;49.60;7.93;;;;;;;;;;5073939;28;20044;-73
2021/08/25 07:59:21;;;;;;;19.00;8.40;;;;;;;;;;5073326;28;20100;-74
2021/08/25 08:01:47;;;;;;;41.00;8.50;;;;;;;;;;5073527;28;20485;-74
2021/08/25 08:04:13;;;;;;;23.98;7.85;;;;;;;;;;5073626;28;20764;-73
2021/08/25 08:06:39;;;;;;;26.08;7.95;;;;;;;;;;5073960;28;20454;-74
2021/08/25 08:09:05;;;;;;;29.58;7.50;;;;;;;;;;5073671;28;20031;-72
2021/08/25 08:11:32;;;;;;;35.42;8.15;;;;;;;;;;5073499;28;20025;-74
2021/08/25 08:13:58;;;;;;;32.38;8.82;;;;;;;;;;5073812;28;20147;-74
2021/08/25 08:16:24;;;;;;;23.33;7.93;;;;;;;;;;5073612;28;20064;-74
2021/08/25 08:18:59;;;;;;;18.27;6.95;;;;;;;;;;5073552;28;20027;-74
2021/08/25 08:21:25;;;;;;;24.38;7.30;;;;;;;;;;5073568;28;20033;-74
2021/08/25 08:23:51;;;;;;;33.90;8.48;;;;;;;;;;5073354;28;20353;-75
2021/08/25 08:26:17;;;;;;;26.85;8.70;;;;;;;;;;5073750;28;20107;-73
2021/08/25 08:28:43;;;;;;;23.10;8.82;;;;;;;;;;5073372;28;20017;-74
2021/08/25 08:31:10;;;;;;;30.55;9.80;;;;;;;;;;5073840;28;20032;-74
2021/08/25 08:33:36;;;;;;;16.90;7.22;;;;;;;;;;5073330;28;20024;-74
2021/08/25 08:36:02;;;;;;;36.22;8.10;;;;;;;;;;5073526;28;20370;-74
2021/08/25 08:38:28;;;;;;;27.83;8.60;;;;;;;;;;5073457;28;20074;-73
2021/08/25 08:40:54;;;;;;;20.17;9.07;;;;;;;;;;5073388;28;20060;-73
2021/08/25 08:43:20;;;;;;;32.92;8.55;;;;;;;;;;5073093;28;20439;-74
2021/08/25 08:45:46;;;;;;;31.80;7.30;;;;;;;;;;5073351;28;20047;-74
2021/08/25 08:48:13;;;;;;;26.80;9.57;;;;;;;;;;5073217;28;20048;-75
2021/08/25 08:50:40;;;;;;;31.63;9.93;;;;;;;;;;5073139;28;20363;-75
2021/08/25 08:53:07;;;;;;;14.55;7.57;;;;;;;;;;5073484;28;20028;-75
2021/08/25 08:55:33;;;;;;;21.63;7.70;;;;;;;;;;5073078;28;20082;-75
2021/08/25 08:57:59;;;;;;;29.08;9.30;;;;;;;;;;5073604;28;20025;-75
2021/08/25 09:00:26;;;;;;;39.03;7.18;;;;;;;;;;5073251;28;20040;-76
2021/08/25 09:02:52;;;;;;;22.02;8.73;;;;;;;;;;5073433;28;20025;-75
2021/08/25 09:05:25;;;;;;;18.98;7.78;;;;;;;;;;5073341;28;20066;-76
2021/08/25 09:07:53;;;;;;;24.35;8.63;;;;;;;;;;5071093;28;20102;-75
2021/08/25 09:10:21;;;;;;;18.77;8.50;;;;;;;;;;5073658;28;20064;-76
2021/08/25 09:12:56;;;;;;;24.25;8.35;;;;;;;;;;5076679;28;20024;-76
2021/08/25 09:15:22;;;;;;;17.23;8.73;;;;;;;;;;5076521;28;20032;-76
2021/08/25 09:17:54;;;;;;;21.38;8.77;;;;;;;;;;5076565;28;20056;-77
2021/08/25 09:20:20;;;;;;;23.60;8.48;;;;;;;;;;5076617;28;20480;-76
2021/08/25 09:22:46;;;;;;;19.60;10.45;;;;;;;;;;5076136;28;20020;-76
2021/08/25 09:25:25;;;;;;;24.23;7.90;;;;;;;;;;5076655;28;20039;-76
2021/08/25 09:27:52;;;;;;;11.63;7.57;;;;;;;;;;5076053;28;20086;-76
2021/08/25 09:30:18;;;;;;;22.85;8.32;;;;;;;;;;5076185;28;20031;-75
2021/08/25 09:32:44;;;;;;;19.25;7.57;;;;;;;;;;5076646;28;20386;-76
2021/08/25 09:35:10;;;;;;;18.13;8.43;;;;;;;;;;5075097;28;20025;-76
2021/08/25 09:37:36;;;;;;;13.95;8.45;;;;;;;;;;5076162;28;20026;-76
2021/08/25 09:40:04;;;;;;;20.35;11.88;;;;;;;;;;5076206;28;20078;-75
2021/08/25 09:42:46;;;;;;;34.63;11.15;;;;;;;;;;5076096;28;20483;-75
2021/08/25 09:45:12;;;;;;;;;;;;;;;;;;5077218;28;20031;-76
2021/08/25 09:47:54;;;;;;;23.80;9.57;;;;;;;;;;5075971;28;20312;-76
2021/08/25 09:50:21;;;;;;;18.20;9.27;;;;;;;;;;5076337;28;20163;-75
2021/08/25 09:52:48;;;;;;;31.15;12.55;;;;;;;;;;5074701;28;20167;-75
2021/08/25 09:55:14;;;;;;;17.70;11.73;;;;;;;;;;5076048;28;20031;-77
2021/08/25 09:57:41;;;;;;;30.60;11.05;;;;;;;;;;5096276;28;20377;-74
2021/08/25 10:00:07;;;;;;;38.55;34.40;;;;;;;;;;5095977;28;20031;-76
2021/08/25 10:02:34;;;;;;;29.02;22.30;;;;;;;;;;5096464;28;20035;-76
2021/08/25 10:05:00;;;;;;;21.35;19.20;;;;;;;;;;5096033;28;20016;-76
2021/08/25 10:07:26;;;;;;;27.42;14.77;;;;;;;;;;5090344;28;20091;-76
2021/08/25 10:09:52;;;;;;;37.80;12.93;;;;;;;;;;5092328;28;20012;-73
2021/08/25 10:12:19;;;;;;;36.60;15.05;;;;;;;;;;5116026;28;20031;-75
2021/08/25 10:14:45;;;;;;;34.30;22.42;;;;;;;;;;5116121;28;20035;-77
2021/08/25 10:17:11;;;;;;;44.10;11.38;;;;;;;;;;5115946;28;20028;-76
2021/08/25 10:19:38;;;;;;;42.42;12.70;;;;;;;;;;5115849;28;20544;-76
2021/08/25 10:22:24;;;;;;;28.52;14.32;;;;;;;;;;5115302;28;20036;-75
2021/08/25 10:25:05;;;;;;;32.70;12.82;;;;;;;;;;5115662;28;20031;-78
2021/08/25 10:27:32;;;;;;;;;;;;;;;;;;5116073;28;20032;-76
2021/08/25 10:30:06;;;;;;;29.23;13.38;;;;;;;;;;5115843;28;19908;-76
2021/08/25 10:32:33;;;;;;;29.02;14.45;;;;;;;;;;5115552;28;20028;-78
2021/08/25 10:35:17;;;;;;;40.10;17.65;;;;;;;;;;5116276;28;20027;-77
2021/08/25 10:37:44;;;;;;;28.92;12.32;;;;;;;;;;5115886;28;20027;-76
2021/08/25 10:40:10;;;;;;;42.78;12.30;;;;;;;;;;5115646;28;20091;-75
2021/08/25 10:42:45;;;;;;;57.33;14.63;;;;;;;;;;5115055;28;20069;-75
2021/08/25 10:45:11;;;;;;;24.88;12.23;;;;;;;;;;5115038;28;20023;-75
2021/08/25 10:47:57;;;;;;;56.60;13.02;;;;;;;;;;5114909;28;20132;-76
2021/08/25 10:50:23;;;;;;;39.50;11.50;;;;;;;;;;5086068;28;20076;-75
2021/08/25 10:52:50;;;;;;;29.30;9.88;;;;;;;;;;5094023;28;20454;-75
2021/08/25 10:55:16;;;;;;;25.95;11.85;;;;;;;;;;5092432;28;20086;-77
2021/08/25 10:57:44;;;;;;;24.70;12.55;;;;;;;;;;5094934;28;20050;-76
2021/08/25 11:00:10;;;;;;;23.42;11.82;;;;;;;;;;5095451;28;20026;-77
2021/08/25 11:02:38;;;;;;;39.78;12.93;;;;;;;;;;5095646;28;20020;-78
2021/08/25 11:05:04;;;;;;;24.58;10.98;;;;;;;;;;5095904;28;20062;-78
2021/08/25 11:07:30;;;;;;;15.73;11.85;;;;;;;;;;5093992;28;20024;-77
2021/08/25 11:09:56;;;;;;;26.15;14.55;;;;;;;;;;5095299;28;20026;-74
2021/08/25 11:12:23;;;;;;;41.45;13.65;;;;;;;;;;5092808;28;20035;-76
2021/08/25 11:14:50;;;;;;;21.23;13.35;;;;;;;;;;5095358;28;20035;-76
2021/08/25 11:17:18;;;;;;;20.45;12.55;;;;;;;;;;5092466;28;20074;-77
2021/08/25 11:19:45;;;;;;;34.70;13.23;;;;;;;;;;5094934;28;20028;-78
2021/08/25 11:22:15;;;;;;;33.78;13.63;;;;;;;;;;5095472;28;20063;-79
2021/08/25 11:24:42;;;;;;;15.95;12.23;;;;;;;;;;5095472;28;20099;-78
2021/08/25 11:27:28;;;;;;;16.98;12.38;;;;;;;;;;5095105;28;20168;-78
2021/08/25 11:30:10;;;;;;;21.35;12.30;;;;;;;;;;5079905;28;20017;-78
2021/08/25 11:32:36;;;;;;;20.80;14.07;;;;;;;;;;5095961;28;20020;-78
2021/08/25 11:35:02;;;;;;;16.27;14.57;;;;;;;;;;5094911;28;20039;-79
2021/08/25 11:37:28;;;;;;;14.60;13.15;;;;;;;;;;5094842;28;20154;-78
2021/08/25 11:39:58;;;;;;;19.45;14.90;;;;;;;;;;5095674;28;20024;-77
2021/08/25 11:42:28;;;;;;;14.85;13.45;;;;;;;;;;5095634;28;20032;-79
2021/08/25 11:44:54;;;;;;;18.77;13.02;;;;;;;;;;5095289;28;20149;-77
2021/08/25 11:47:20;;;;;;;13.52;12.23;;;;;;;;;;5095535;28;20027;-78
2021/08/25 11:49:47;;;;;;;17.48;12.73;;;;;;;;;;5095226;28;20449;-78
2021/08/25 11:52:14;;;;;;;18.83;12.57;;;;;;;;;;5094832;28;20055;-78
2021/08/25 11:54:40;;;;;;;20.38;13.38;;;;;;;;;;5096049;28;20078;-78
2021/08/25 11:57:08;;;;;;;21.67;15.50;;;;;;;;;;5094698;28;20144;-78
2021/08/25 11:59:35;;;;;;;17.67;13.02;;;;;;;;;;5094588;28;20035;-78
2021/08/25 12:02:04;;;;;;;19.45;12.38;;;;;;;;;;5094777;28;20036;-78
2021/08/25 12:04:31;;;;;;;20.00;12.32;;;;;;;;;;5094936;28;20020;-76
2021/08/25 12:06:57;;;;;;;14.32;12.00;;;;;;;;;;5094345;28;20047;-77
2021/08/25 12:09:38;;;;;;;22.58;13.25;;;;;;;;;;5095450;28;20038;-78
2021/08/25 12:12:05;;;;;;;24.23;13.15;;;;;;;;;;5095073;28;20118;-77
2021/08/25 12:14:50;;;;;;;21.10;12.27;;;;;;;;;;5095024;28;20473;-78
2021/08/25 12:17:16;;;;;;;29.67;17.65;;;;;;;;;;5080572;28;20069;-78
2021/08/25 12:19:53;;;;;;;21.08;13.75;;;;;;;;;;5095414;28;20028;-77
2021/08/25 12:22:20;;;;;;;13.60;11.63;;;;;;;;;;5095291;28;20039;-77
2021/08/25 12:24:46;;;;;;;26.40;13.60;;;;;;;;;;5095469;28;20028;-78
2021/08/25 12:27:12;;;;;;;16.90;13.98;;;;;;;;;;5094873;28;20024;-78
2021/08/25 12:29:38;;;;;;;15.45;12.95;;;;;;;;;;5095264;28;20031;-78
2021/08/25 12:32:05;;;;;;;22.92;12.55;;;;;;;;;;5095043;28;20415;-78
2021/08/25 12:34:31;;;;;;;14.73;11.77;;;;;;;;;;5094954;28;20028;-78
2021/08/25 12:36:57;;;;;;;21.88;11.93;;;;;;;;;;5095453;28;20475;-78
2021/08/25 12:39:28;;;;;;;16.88;10.82;;;;;;;;;;5094832;28;20457;-77
2021/08/25 12:41:54;;;;;;;20.02;10.90;;;;;;;;;;5094535;28;20432;-77
2021/08/25 12:44:20;;;;;;;20.95;12.43;;;;;;;;;;5094994;28;20028;-78
2021/08/25 12:47:02;;;;;;;34.20;12.60;;;;;;;;;;5097476;28;20374;-77
2021/08/25 12:49:29;;;;;;;17.23;9.82;;;;;;;;;;5098604;28;20457;-77
2021/08/25 12:51:55;;;;;;;24.25;10.70;;;;;;;;;;5098654;28;20186;-75
2021/08/25 12:54:21;;;;;;;20.20;13.07;;;;;;;;;;5099035;28;20016;-76
2021/08/25 12:56:47;;;;;;;18.75;13.32;;;;;;;;;;5099220;28;20052;-77
2021/08/25 12:59:13;;;;;;;17.33;11.13;;;;;;;;;;5098781;28;20042;-76
2021/08/25 13:01:40;;;;;;;17.30;12.05;;;;;;;;;;5098752;28;20036;-73
2021/08/25 13:04:06;;;;;;;20.67;11.77;;;;;;;;;;5098923;28;20063;-77
2021/08/25 13:06:35;;;;;;;19.48;12.57;;;;;;;;;;5097318;28;20469;-76
2021/08/25 13:09:01;;;;;;;21.25;10.88;;;;;;;;;;5097890;28;20020;-76
2021/08/25 13:11:27;;;;;;;22.33;12.45;;;;;;;;;;5097397;28;20115;-73
2021/08/25 13:13:55;;;;;;;18.85;10.75;;;;;;;;;;5098595;28;20086;-74
2021/08/25 13:16:21;;;;;;;23.85;11.48;;;;;;;;;;5098124;28;20487;-76
2021/08/25 13:18:47;;;;;;;25.33;11.20;;;;;;;;;;5099053;28;20363;-76
2021/08/25 13:21:13;;;;;;;23.70;11.35;;;;;;;;;;5097969;28;20032;-73
2021/08/25 13:23:39;;;;;;;38.80;14.50;;;;;;;;;;5097873;28;20032;-76
2021/08/25 13:26:05;;;;;;;32.15;12.50;;;;;;;;;;5096763;28;20024;-76
2021/08/25 13:28:32;;;;;;;25.25;11.90;;;;;;;;;;5097295;28;20028;-77
2021/08/25 13:30:58;;;;;;;30.10;13.88;;;;;;;;;;5098493;28;20034;-77
2021/08/25 13:33:24;;;;;;;16.10;11.85;;;;;;;;;;5097334;28;20028;-76
2021/08/25 13:35:50;;;;;;;16.88;11.27;;;;;;;;;;5098089;28;20047;-78
2021/08/25 13:38:17;;;;;;;18.15;12.20;;;;;;;;;;5096055;28;20024;-73
2021/08/25 13:40:43;;;;;;;25.35;12.02;;;;;;;;;;5094457;28;20028;-74
2021/08/25 13:43:09;;;;;;;19.30;16.35;;;;;;;;;;5095022;28;20027;-72
2021/08/25 13:45:35;;;;;;;19.60;13.30;;;;;;;;;;5096072;28;20035;-76
2021/08/25 13:48:01;;;;;;;23.25;13.18;;;;;;;;;;5095969;28;20020;-75
2021/08/25 13:50:27;;;;;;;18.35;10.25;;;;;;;;;;5092767;28;20020;-75
2021/08/25 13:52:53;;;;;;;17.23;11.55;;;;;;;;;;5095922;28;20031;-75
2021/08/25 13:55:19;;;;;;;17.95;12.20;;;;;;;;;;5094765;28;20361;-76
2021/08/25 13:57:45;;;;;;;23.38;13.13;;;;;;;;;;5095927;28;20020;-73
2021/08/25 14:00:12;;;;;;;18.17;10.85;;;;;;;;;;5095914;28;20039;-73
2021/08/25 14:02:38;;;;;;;18.30;11.27;;;;;;;;;;5095749;28;20043;-73
2021/08/25 14:05:05;;;;;;;16.70;11.65;;;;;;;;;;5092057;28;20453;-75
2021/08/25 14:07:31;;;;;;;23.08;13.70;;;;;;;;;;5095506;28;20031;-72
2021/08/25 14:09:57;;;;;;;14.90;10.52;;;;;;;;;;5095633;28;20102;-75
2021/08/25 14:12:23;;;;;;;34.25;13.77;;;;;;;;;;5096324;28;20484;-71
2021/08/25 14:14:49;;;;;;;28.92;12.68;;;;;;;;;;5095772;28;20035;-76
2021/08/25 14:17:15;;;;;;;19.48;11.95;;;;;;;;;;5095016;28;20484;-77
2021/08/25 14:19:41;;;;;;;16.35;10.55;;;;;;;;;;5092389;28;20484;-75
2021/08/25 14:22:07;;;;;;;13.30;11.07;;;;;;;;;;5095585;28;20405;-76
2021/08/25 14:24:33;;;;;;;28.35;11.80;;;;;;;;;;5095243;28;20020;-76
2021/08/25 14:26:59;;;;;;;14.38;11.20;;;;;;;;;;5095575;28;20362;-75
2021/08/25 14:29:25;;;;;;;14.80;10.35;;;;;;;;;;5094784;28;20432;-73